createdAt,value
2023-05-19T00:02:09.522Z,5.91
2023-05-19T00:04:40.802Z,6.05
2023-05-19T00:07:12.378Z,6.21
2023-05-19T00:09:41.060Z,6.01
2023-05-19T00:12:11.145Z,5.74
2023-05-19T00:14:39.750Z,6.04
2023-05-19T00:17:11.134Z,5.99
2023-05-19T00:19:39.472Z,6.37
2023-05-19T00:22:07.770Z,6.20
2023-05-19T00:24:35.961Z,6.10
2023-05-19T00:27:04.435Z,6.70
2023-05-19T00:29:32.485Z,6.53
2023-05-19T00:32:00.622Z,6.80
2023-05-19T00:34:30.353Z,6.61
2023-05-19T00:36:58.582Z,6.48
2023-05-19T00:39:27.013Z,6.89
2023-05-19T00:41:55.398Z,6.56
2023-05-19T00:44:23.561Z,6.71
2023-05-19T00:46:51.919Z,6.55
2023-05-19T00:49:20.216Z,6.57
2023-05-19T00:51:50.648Z,6.32
2023-05-19T00:54:21.719Z,6.18
2023-05-19T00:56:50.668Z,6.51
2023-05-19T00:59:19.518Z,6.74
2023-05-19T01:01:49.150Z,6.56
2023-05-19T01:04:18.074Z,6.56
2023-05-19T01:06:46.396Z,6.64
2023-05-19T01:09:16.393Z,6.79
2023-05-19T01:11:44.665Z,6.47
2023-05-19T01:14:13.071Z,7.02
2023-05-19T01:16:48.773Z,6.60
2023-05-19T01:19:39.483Z,6.90
2023-05-19T01:22:23.230Z,6.48
2023-05-19T01:25:20.260Z,6.81
2023-05-19T01:28:18.964Z,6.98
2023-05-19T01:30:53.668Z,6.48
2023-05-19T01:33:24.710Z,6.45
2023-05-19T01:35:56.666Z,6.56
2023-05-19T01:38:27.619Z,6.71
2023-05-19T01:40:58.777Z,6.62
2023-05-19T01:43:28.696Z,6.59
2023-05-19T01:45:59.481Z,6.33
2023-05-19T01:48:30.117Z,6.39
2023-05-19T01:50:59.236Z,6.66
2023-05-19T01:53:27.989Z,6.70
2023-05-19T01:55:57.983Z,6.39
2023-05-19T01:58:37.889Z,6.83
2023-05-19T02:01:22.973Z,6.56
2023-05-19T02:04:14.448Z,6.22
2023-05-19T02:06:51.077Z,7.04
2023-05-19T02:09:27.337Z,6.39
2023-05-19T02:12:02.693Z,6.60
2023-05-19T02:14:35.033Z,6.55
2023-05-19T02:17:06.205Z,6.57
2023-05-19T02:19:40.738Z,6.87
2023-05-19T02:22:09.672Z,6.80
2023-05-19T02:24:38.088Z,6.75
2023-05-19T02:27:07.512Z,7.10
2023-05-19T02:29:35.735Z,6.70
2023-05-19T02:32:07.341Z,6.52
2023-05-19T02:34:35.804Z,7.02
2023-05-19T02:37:07.712Z,7.22
2023-05-19T02:39:35.946Z,7.15
2023-05-19T02:42:04.218Z,6.96
2023-05-19T02:44:32.532Z,6.83
2023-05-19T02:47:01.164Z,6.82
2023-05-19T02:49:35.838Z,6.92
2023-05-19T02:52:04.374Z,7.12
2023-05-19T02:54:32.630Z,6.73
2023-05-19T02:57:01.155Z,6.54
2023-05-19T02:59:29.536Z,7.04
2023-05-19T03:02:00.568Z,7.20
2023-05-19T03:04:30.381Z,6.72
2023-05-19T03:06:59.018Z,7.21
2023-05-19T03:09:27.256Z,7.36
2023-05-19T03:11:55.839Z,7.39
2023-05-19T03:14:25.235Z,6.93
2023-05-19T03:16:53.707Z,6.51
2023-05-19T03:19:22.206Z,7.17
2023-05-19T03:21:52.616Z,7.16
2023-05-19T03:24:20.978Z,7.14
2023-05-19T03:26:49.399Z,7.17
2023-05-19T03:29:17.616Z,7.07
2023-05-19T03:31:46.774Z,6.67
2023-05-19T03:34:16.960Z,7.30
2023-05-19T03:36:45.356Z,6.84
2023-05-19T03:39:18.445Z,6.97
2023-05-19T03:41:49.842Z,7.11
2023-05-19T03:44:18.111Z,6.83
2023-05-19T03:46:46.444Z,7.35
2023-05-19T03:49:20.741Z,7.21
2023-05-19T03:52:07.801Z,7.31
2023-05-19T03:54:49.757Z,7.27
2023-05-19T03:57:18.019Z,7.43
2023-05-19T03:59:46.762Z,7.27
2023-05-19T04:02:16.469Z,7.15
2023-05-19T04:04:45.061Z,6.90
2023-05-19T04:07:13.353Z,7.06
2023-05-19T04:09:43.779Z,7.56
2023-05-19T04:12:13.621Z,7.39
2023-05-19T04:14:41.921Z,7.16
2023-05-19T04:17:12.049Z,7.37
2023-05-19T04:19:40.410Z,7.35
2023-05-19T04:22:08.614Z,7.39
2023-05-19T04:24:36.950Z,6.91
2023-05-19T04:27:05.552Z,7.25
2023-05-19T04:29:35.699Z,7.34
2023-05-19T04:32:07.045Z,7.28
2023-05-19T04:34:36.133Z,6.92
2023-05-19T04:37:07.139Z,6.86
2023-05-19T04:39:38.804Z,7.17
2023-05-19T04:42:09.077Z,7.14
2023-05-19T04:44:40.323Z,7.02
2023-05-19T04:47:09.195Z,7.11
2023-05-19T04:49:39.717Z,6.64
2023-05-19T04:52:10.888Z,7.35
2023-05-19T04:54:41.779Z,6.89
2023-05-19T04:57:13.509Z,7.22
2023-05-19T04:59:44.011Z,7.35
2023-05-19T05:02:12.482Z,6.88
2023-05-19T05:04:44.019Z,6.89
2023-05-19T05:07:12.331Z,6.93
2023-05-19T05:09:41.416Z,7.00
2023-05-19T05:12:11.156Z,6.96
2023-05-19T05:14:41.716Z,7.36
2023-05-19T05:17:14.616Z,7.04
2023-05-19T05:19:45.439Z,7.11
2023-05-19T05:22:14.706Z,6.92
2023-05-19T05:24:44.511Z,7.14
2023-05-19T05:27:13.601Z,7.35
2023-05-19T05:29:42.022Z,6.94
2023-05-19T05:32:12.723Z,7.28
2023-05-19T05:34:41.991Z,6.91
2023-05-19T05:37:10.258Z,7.27
2023-05-19T05:39:38.869Z,7.80
2023-05-19T05:42:09.139Z,8.63
2023-05-19T05:44:37.438Z,7.39
2023-05-19T05:47:07.815Z,7.13
2023-05-19T05:49:39.224Z,6.86
2023-05-19T05:52:09.317Z,7.17
2023-05-19T05:54:44.590Z,7.34
2023-05-19T05:57:14.549Z,7.13
2023-05-19T05:59:45.756Z,6.80
2023-05-19T06:02:14.290Z,7.24
2023-05-19T06:04:44.001Z,7.25
2023-05-19T06:07:12.179Z,7.39
2023-05-19T06:09:41.057Z,7.18
2023-05-19T06:12:11.389Z,7.14
2023-05-19T06:14:44.387Z,6.93
2023-05-19T06:17:21.444Z,7.45
2023-05-19T06:19:52.151Z,7.09
2023-05-19T06:22:20.375Z,6.73
2023-05-19T06:24:49.586Z,6.62
2023-05-19T06:27:17.855Z,6.76
2023-05-19T06:29:47.584Z,6.23
2023-05-19T06:32:15.918Z,6.89
2023-05-19T06:34:44.478Z,6.61
2023-05-19T06:37:17.253Z,6.50
2023-05-19T06:39:45.814Z,6.68
2023-05-19T06:42:14.028Z,6.13
2023-05-19T06:45:00.214Z,6.19
2023-05-19T06:47:29.174Z,6.18
2023-05-19T06:49:57.976Z,6.05
2023-05-19T06:52:30.949Z,6.36
2023-05-19T06:54:59.451Z,6.11
2023-05-19T06:57:27.742Z,6.58
2023-05-19T06:59:56.788Z,6.07
2023-05-19T07:02:25.608Z,5.81
2023-05-19T07:04:54.732Z,5.67
2023-05-19T07:07:24.015Z,5.67
2023-05-19T07:09:54.659Z,5.91
2023-05-19T07:12:23.056Z,5.71
2023-05-19T07:14:51.653Z,5.62
2023-05-19T07:17:20.724Z,5.09
2023-05-19T07:19:49.678Z,5.21
2023-05-19T07:22:18.130Z,4.79
2023-05-19T07:24:46.511Z,5.56
2023-05-19T07:27:16.730Z,5.21
2023-05-19T07:29:44.927Z,5.15
2023-05-19T07:32:13.896Z,4.83
2023-05-19T07:34:42.100Z,4.82
2023-05-19T07:37:10.373Z,4.69
2023-05-19T07:39:38.640Z,4.95
2023-05-19T07:42:07.092Z,4.98
2023-05-19T07:44:36.882Z,4.93
2023-05-19T07:47:05.294Z,5.29
2023-05-19T07:49:33.520Z,5.25
2023-05-19T07:52:01.985Z,4.82
2023-05-19T07:54:30.346Z,5.46
2023-05-19T07:56:58.625Z,5.27
2023-05-19T07:59:26.904Z,5.37
2023-05-19T08:01:56.756Z,4.64
2023-05-19T08:04:25.008Z,4.53
2023-05-19T08:06:53.301Z,4.75
2023-05-19T08:09:21.704Z,4.81
2023-05-19T08:11:50.194Z,5.25
2023-05-19T08:14:18.503Z,5.49
2023-05-19T08:16:47.034Z,5.75
2023-05-19T08:19:17.088Z,6.09
2023-05-19T08:21:45.551Z,6.43
2023-05-19T08:24:14.091Z,6.41
2023-05-19T08:26:42.154Z,6.32
2023-05-19T08:29:10.402Z,6.23
2023-05-19T08:31:39.033Z,6.07
2023-05-19T08:34:07.264Z,5.75
2023-05-19T08:36:37.418Z,5.86
2023-05-19T08:39:06.641Z,6.50
2023-05-19T08:41:34.730Z,6.76
2023-05-19T08:44:03.088Z,6.96
2023-05-19T08:46:31.599Z,7.06
2023-05-19T08:49:11.396Z,6.91
2023-05-19T08:51:51.880Z,6.90
2023-05-19T08:54:20.945Z,6.64
2023-05-19T08:56:49.921Z,7.55
2023-05-19T08:59:19.696Z,7.23
2023-05-19T09:01:50.120Z,6.82
2023-05-19T09:04:19.225Z,7.80
2023-05-19T09:06:50.330Z,7.46
2023-05-19T09:09:18.644Z,7.53
2023-05-19T09:11:47.771Z,7.65
2023-05-19T09:14:16.048Z,6.89
2023-05-19T09:16:49.820Z,7.79
2023-05-19T09:19:18.605Z,7.43
2023-05-19T09:21:48.490Z,7.63
2023-05-19T09:24:17.162Z,7.46
2023-05-19T09:26:46.845Z,7.45
2023-05-19T09:29:16.653Z,7.52
2023-05-19T09:31:51.975Z,7.23
2023-05-19T09:34:21.160Z,7.28
2023-05-19T09:36:51.824Z,6.94
2023-05-19T09:39:21.835Z,6.78
2023-05-19T09:41:52.840Z,7.44
2023-05-19T09:44:28.875Z,7.35
2023-05-19T09:46:58.541Z,6.86
2023-05-19T09:49:29.567Z,6.88
2023-05-19T09:52:00.739Z,7.26
2023-05-19T09:54:29.955Z,6.98
2023-05-19T09:57:00.459Z,7.32
2023-05-19T09:59:32.864Z,8.13
2023-05-19T10:02:03.156Z,7.87
2023-05-19T10:04:32.759Z,8.27
2023-05-19T10:07:06.598Z,8.37
2023-05-19T10:09:37.420Z,8.60
2023-05-19T10:12:08.195Z,8.27
2023-05-19T10:14:38.040Z,7.74
2023-05-19T10:17:09.326Z,7.87
2023-05-19T10:19:39.905Z,7.54
2023-05-19T10:22:10.050Z,7.98
2023-05-19T10:24:38.615Z,8.09
2023-05-19T10:27:12.630Z,7.70
2023-05-19T10:29:47.337Z,8.13
2023-05-19T10:32:21.039Z,8.31
2023-05-19T10:35:13.321Z,8.56
2023-05-19T10:37:51.783Z,8.44
2023-05-19T10:40:27.764Z,8.69
2023-05-19T10:43:14.237Z,7.96
2023-05-19T10:45:50.110Z,8.31
2023-05-19T10:48:21.751Z,8.05
2023-05-19T10:50:54.201Z,8.24
2023-05-19T10:53:24.123Z,8.47
2023-05-19T10:55:56.290Z,8.71
2023-05-19T10:58:39.795Z,8.66
2023-05-19T11:01:14.823Z,8.47
2023-05-19T11:03:48.299Z,7.66
2023-05-19T11:06:32.009Z,8.24
2023-05-19T11:09:05.928Z,8.82
2023-05-19T11:11:47.369Z,8.75
2023-05-19T11:14:18.958Z,8.29
2023-05-19T11:16:52.558Z,9.26
2023-05-19T11:19:28.746Z,9.51
2023-05-19T11:21:59.215Z,9.76
2023-05-19T11:24:40.174Z,8.43
2023-05-19T11:27:22.196Z,9.08
2023-05-19T11:29:51.292Z,8.87
2023-05-19T11:32:21.984Z,8.12
2023-05-19T11:34:54.105Z,9.29
2023-05-19T11:37:25.399Z,10.06
2023-05-19T11:39:55.847Z,9.94
2023-05-19T11:42:25.896Z,9.65
2023-05-19T11:44:57.925Z,9.60
2023-05-19T11:47:26.615Z,9.67
2023-05-19T11:49:56.655Z,10.28
2023-05-19T11:52:27.708Z,10.17
2023-05-19T11:55:01.731Z,10.05
2023-05-19T11:57:31.103Z,10.18
2023-05-19T12:00:04.588Z,9.79
2023-05-19T12:02:34.305Z,10.19
2023-05-19T12:05:02.677Z,10.24
2023-05-19T12:07:31.258Z,10.56
2023-05-19T12:10:01.360Z,10.31
2023-05-19T12:12:32.366Z,9.88
2023-05-19T12:15:05.990Z,10.32
2023-05-19T12:17:34.774Z,10.80
2023-05-19T12:20:05.123Z,10.46
2023-05-19T12:22:33.516Z,10.38
2023-05-19T12:25:05.474Z,10.21
2023-05-19T12:27:38.427Z,10.50
2023-05-19T12:30:08.470Z,10.78
2023-05-19T12:32:37.488Z,9.96
2023-05-19T12:35:07.767Z,9.93
2023-05-19T12:37:37.960Z,10.16
2023-05-19T12:40:10.259Z,10.68
2023-05-19T12:42:38.954Z,10.75
2023-05-19T12:45:08.542Z,10.91
2023-05-19T12:47:38.233Z,10.40
2023-05-19T12:50:09.345Z,10.69
2023-05-19T12:52:44.177Z,10.74
2023-05-19T12:55:14.676Z,10.93
2023-05-19T12:57:47.967Z,10.89
2023-05-19T13:00:20.846Z,11.24
2023-05-19T13:03:01.978Z,11.18
2023-05-19T13:05:33.708Z,11.51
2023-05-19T13:08:04.052Z,11.28
2023-05-19T13:10:35.459Z,11.75
2023-05-19T13:13:22.412Z,11.13
2023-05-19T13:16:10.666Z,11.50
2023-05-19T13:18:57.266Z,10.91
2023-05-19T13:21:25.860Z,11.52
2023-05-19T13:23:54.078Z,11.57
2023-05-19T13:26:23.876Z,11.50
2023-05-19T13:28:52.115Z,11.17
2023-05-19T13:31:20.459Z,11.08
2023-05-19T13:33:49.682Z,11.24
2023-05-19T13:36:17.944Z,11.53
2023-05-19T13:38:46.209Z,11.48
2023-05-19T13:41:16.022Z,10.90
2023-05-19T13:43:45.855Z,11.54
2023-05-19T13:46:14.193Z,11.47
2023-05-19T13:48:42.746Z,10.38
2023-05-19T13:51:12.272Z,10.33
2023-05-19T13:53:41.341Z,10.04
2023-05-19T13:56:10.039Z,10.25
2023-05-19T13:58:38.560Z,10.15
2023-05-19T14:01:07.984Z,10.68
2023-05-19T14:03:37.195Z,10.43
2023-05-19T14:06:06.040Z,10.23
2023-05-19T14:08:34.731Z,9.94
2023-05-19T14:11:03.190Z,9.86
2023-05-19T14:13:34.448Z,9.83
2023-05-19T14:16:05.185Z,9.93
2023-05-19T14:18:34.757Z,9.69
2023-05-19T14:21:03.934Z,9.76
2023-05-19T14:23:33.344Z,9.37
2023-05-19T14:26:02.528Z,9.62
2023-05-19T14:28:31.043Z,10.20
2023-05-19T14:30:59.696Z,9.80
2023-05-19T14:33:28.278Z,10.98
2023-05-19T14:36:00.180Z,10.65
2023-05-19T14:38:29.448Z,10.61
2023-05-19T14:40:58.765Z,10.24
2023-05-19T14:43:27.626Z,10.58
2023-05-19T14:45:56.573Z,11.21
2023-05-19T14:48:24.908Z,10.55
2023-05-19T14:50:54.802Z,10.30
2023-05-19T14:53:24.510Z,10.55
2023-05-19T14:55:53.047Z,10.54
2023-05-19T14:58:28.976Z,10.56
2023-05-19T15:00:59.508Z,10.41
2023-05-19T15:03:28.171Z,10.63
2023-05-19T15:05:56.486Z,9.78
2023-05-19T15:08:26.303Z,10.36
2023-05-19T15:10:54.742Z,10.28
2023-05-19T15:13:23.087Z,10.36
2023-05-19T15:16:08.273Z,10.16
2023-05-19T15:18:43.553Z,10.13
2023-05-19T15:21:13.114Z,10.00
2023-05-19T15:23:42.947Z,10.31
2023-05-19T15:26:11.288Z,9.99
2023-05-19T15:28:39.324Z,9.96
2023-05-19T15:31:07.838Z,9.85
2023-05-19T15:33:36.864Z,10.00
2023-05-19T15:36:05.642Z,10.25
2023-05-19T15:38:37.190Z,10.32
2023-05-19T15:41:09.813Z,9.92
2023-05-19T15:43:38.754Z,10.14
2023-05-19T15:46:07.181Z,9.29
2023-05-19T15:48:35.872Z,11.03
2023-05-19T15:51:04.498Z,11.20
2023-05-19T15:53:33.440Z,10.59
2023-05-19T15:56:03.319Z,10.51
2023-05-19T15:58:34.319Z,10.85
2023-05-19T16:01:02.948Z,10.49
2023-05-19T16:03:31.493Z,10.08
2023-05-19T16:06:00.757Z,9.89
2023-05-19T16:08:29.138Z,10.15
2023-05-19T16:10:57.489Z,9.88
2023-05-19T16:13:25.777Z,9.93
2023-05-19T16:15:56.088Z,10.05
2023-05-19T16:18:26.195Z,9.72
2023-05-19T16:20:54.512Z,9.51
2023-05-19T16:23:22.541Z,9.62
2023-05-19T16:25:50.765Z,9.76
2023-05-19T16:28:19.518Z,9.86
2023-05-19T16:30:47.964Z,9.22
2023-05-19T16:33:17.557Z,9.24
2023-05-19T16:35:45.967Z,9.68
2023-05-19T16:38:14.358Z,9.23
2023-05-19T16:40:42.881Z,8.98
2023-05-19T16:43:36.033Z,9.19
2023-05-19T16:46:05.428Z,9.13
2023-05-19T16:48:35.354Z,9.38
2023-05-19T16:51:06.978Z,9.17
2023-05-19T16:53:35.741Z,9.66
2023-05-19T16:56:04.108Z,9.39
2023-05-19T16:58:32.329Z,8.84
2023-05-19T17:01:00.672Z,9.00
2023-05-19T17:03:31.115Z,9.16
2023-05-19T17:06:01.575Z,8.97
2023-05-19T17:08:29.829Z,8.99
2023-05-19T17:10:58.153Z,9.35
2023-05-19T17:13:28.598Z,9.20
2023-05-19T17:15:56.741Z,9.22
2023-05-19T17:18:25.001Z,9.01
2023-05-19T17:20:54.519Z,8.45
2023-05-19T17:23:24.502Z,9.07
2023-05-19T17:25:55.974Z,9.49
2023-05-19T17:28:25.986Z,8.51
2023-05-19T17:30:54.355Z,8.35
2023-05-19T17:33:23.065Z,8.52
2023-05-19T17:35:51.645Z,8.58
2023-05-19T17:38:22.784Z,8.99
2023-05-19T17:40:58.644Z,8.67
2023-05-19T17:43:27.063Z,8.71
2023-05-19T17:45:55.768Z,8.72
2023-05-19T17:48:24.019Z,8.98
2023-05-19T17:50:52.283Z,8.58
2023-05-19T17:53:21.412Z,8.84
2023-05-19T17:55:54.218Z,9.06
2023-05-19T17:58:23.359Z,8.66
2023-05-19T18:00:52.603Z,8.61
2023-05-19T18:03:21.691Z,8.93
2023-05-19T18:05:51.157Z,9.35
2023-05-19T18:08:20.067Z,9.10
2023-05-19T18:10:49.405Z,8.82
2023-05-19T18:13:19.327Z,8.44
2023-05-19T18:15:47.532Z,8.49
2023-05-19T18:18:17.167Z,10.51
2023-05-19T18:20:45.697Z,9.57
2023-05-19T18:23:14.080Z,24.66
2023-05-19T18:25:42.650Z,20.89
2023-05-19T18:28:11.553Z,11.07
2023-05-19T18:30:41.479Z,9.40
2023-05-19T18:33:09.981Z,8.84
2023-05-19T18:35:38.524Z,8.14
2023-05-19T18:38:06.827Z,8.32
2023-05-19T18:40:37.474Z,8.39
2023-05-19T18:43:05.737Z,8.68
2023-05-19T18:45:37.662Z,8.64
2023-05-19T18:48:08.787Z,8.27
2023-05-19T18:50:37.660Z,8.46
2023-05-19T18:53:06.237Z,9.02
2023-05-19T18:55:36.450Z,8.88
2023-05-19T18:58:06.270Z,9.53
2023-05-19T19:00:37.396Z,9.40
2023-05-19T19:03:07.683Z,9.37
2023-05-19T19:05:36.349Z,9.02
2023-05-19T19:08:05.689Z,8.67
2023-05-19T19:10:39.271Z,11.42
2023-05-19T19:13:08.501Z,11.96
2023-05-19T19:15:39.713Z,12.55
2023-05-19T19:18:09.521Z,9.61
2023-05-19T19:20:37.848Z,8.42
2023-05-19T19:23:06.778Z,8.68
2023-05-19T19:25:35.318Z,8.43
2023-05-19T19:28:03.812Z,8.26
2023-05-19T19:30:33.695Z,8.59
2023-05-19T19:33:03.100Z,8.43
2023-05-19T19:35:35.200Z,8.33
2023-05-19T19:38:06.463Z,8.33
2023-05-19T19:40:35.104Z,8.69
2023-05-19T19:43:04.069Z,8.83
2023-05-19T19:45:34.852Z,8.95
2023-05-19T19:48:09.149Z,9.17
2023-05-19T19:50:41.425Z,9.63
2023-05-19T19:53:11.034Z,15.91
2023-05-19T19:55:39.912Z,16.93
2023-05-19T19:58:09.143Z,14.58
2023-05-19T20:00:37.701Z,14.50
2023-05-19T20:03:06.364Z,14.02
2023-05-19T20:05:35.220Z,13.89
2023-05-19T20:08:08.074Z,14.30
2023-05-19T20:10:37.801Z,14.16
2023-05-19T20:13:06.082Z,14.92
2023-05-19T20:15:35.504Z,14.49
2023-05-19T20:18:04.443Z,15.01
2023-05-19T20:20:33.477Z,14.11
2023-05-19T20:23:02.260Z,13.61
2023-05-19T20:25:32.975Z,13.57
2023-05-19T20:28:02.228Z,12.71
2023-05-19T20:30:30.910Z,12.21
2023-05-19T20:32:59.617Z,12.04
2023-05-19T20:35:28.165Z,11.57
2023-05-19T20:37:56.156Z,11.80
2023-05-19T20:40:24.852Z,11.60
2023-05-19T20:42:55.110Z,11.70
2023-05-19T20:45:23.601Z,11.52
2023-05-19T20:47:54.408Z,11.69
2023-05-19T20:50:22.592Z,11.75
2023-05-19T20:52:51.109Z,12.27
2023-05-19T20:55:19.457Z,11.93
2023-05-19T20:57:47.636Z,11.21
2023-05-19T21:00:18.224Z,12.19
2023-05-19T21:02:46.205Z,11.96
2023-05-19T21:05:14.541Z,11.59
2023-05-19T21:07:42.822Z,11.95
2023-05-19T21:10:13.753Z,12.23
2023-05-19T21:12:41.725Z,13.13
2023-05-19T21:15:10.878Z,12.79
2023-05-19T21:17:40.522Z,12.71
2023-05-19T21:20:10.150Z,12.26
2023-05-19T21:22:38.445Z,12.05
2023-05-19T21:25:07.781Z,12.73
2023-05-19T21:27:36.365Z,12.93
2023-05-19T21:30:04.833Z,13.58
2023-05-19T21:32:33.290Z,13.72
2023-05-19T21:35:03.447Z,11.95
2023-05-19T21:37:31.737Z,11.77
2023-05-19T21:40:00.160Z,10.85
2023-05-19T21:42:28.728Z,10.08
2023-05-19T21:44:57.075Z,10.03
2023-05-19T21:47:25.345Z,9.58
2023-05-19T21:49:53.645Z,9.11
2023-05-19T21:52:23.363Z,8.75
2023-05-19T21:54:52.004Z,8.21
2023-05-19T21:57:20.005Z,7.95
2023-05-19T21:59:48.432Z,7.87
2023-05-19T22:02:17.024Z,7.14
2023-05-19T22:04:45.167Z,7.22
2023-05-19T22:07:13.681Z,6.72
2023-05-19T22:09:43.804Z,6.73
2023-05-19T22:12:11.996Z,5.89
2023-05-19T22:14:40.553Z,5.64
2023-05-19T22:17:09.274Z,6.94
2023-05-19T22:19:37.574Z,9.74
2023-05-19T22:22:13.001Z,10.96
2023-05-19T22:24:44.333Z,10.46
2023-05-19T22:27:12.817Z,9.64
2023-05-19T22:29:41.526Z,7.50
2023-05-19T22:32:12.152Z,5.77
2023-05-19T22:34:40.546Z,5.19
2023-05-19T22:37:08.800Z,5.17
2023-05-19T22:39:37.009Z,5.17
2023-05-19T22:42:07.439Z,5.98
2023-05-19T22:44:35.914Z,5.61
2023-05-19T22:47:04.453Z,5.56
2023-05-19T22:49:33.449Z,5.79
2023-05-19T22:52:01.942Z,5.68
2023-05-19T22:54:30.228Z,5.59
2023-05-19T22:56:58.437Z,5.59
2023-05-19T22:59:27.730Z,5.55
2023-05-19T23:01:56.041Z,5.37
2023-05-19T23:04:24.499Z,5.53
2023-05-19T23:06:52.944Z,5.75
2023-05-19T23:09:21.901Z,5.61
2023-05-19T23:11:50.152Z,5.57
2023-05-19T23:14:18.703Z,5.49
2023-05-19T23:16:48.685Z,5.42
2023-05-19T23:19:17.118Z,5.45
2023-05-19T23:21:45.909Z,5.27
2023-05-19T23:24:14.157Z,5.61
2023-05-19T23:26:44.136Z,5.93
2023-05-19T23:29:13.886Z,5.57
2023-05-19T23:31:42.210Z,6.16
2023-05-19T23:34:11.957Z,6.13
2023-05-19T23:36:41.093Z,6.21
2023-05-19T23:39:09.411Z,6.61
2023-05-19T23:41:37.657Z,6.60
2023-05-19T23:44:06.128Z,6.23
2023-05-19T23:46:34.675Z,6.29
2023-05-19T23:49:03.081Z,6.68
2023-05-19T23:51:32.779Z,6.58
2023-05-19T23:54:01.097Z,6.43
2023-05-19T23:56:29.304Z,6.46
2023-05-19T23:58:57.397Z,6.61
